createdAt,value
2023-12-03T00:00:00.404Z,-0.05
2023-12-03T00:15:00.611Z,-0.1
2023-12-03T00:30:00.439Z,-0.05
2023-12-03T00:45:00.519Z,-0.1
2023-12-03T01:00:00.439Z,-0.2
2023-12-03T01:15:00.455Z,-0.3
2023-12-03T01:30:00.433Z,-0.65
2023-12-03T01:45:00.417Z,-0.65
2023-12-03T02:00:00.444Z,-0.9
2023-12-03T02:15:00.372Z,-0.85
2023-12-03T02:30:00.373Z,-0.9
2023-12-03T02:45:00.353Z,-1.25
2023-12-03T03:00:00.383Z,-1.7
2023-12-03T03:15:00.530Z,-1.75
2023-12-03T03:30:00.363Z,-2.1
2023-12-03T03:45:00.419Z,-2.2
2023-12-03T04:00:00.426Z,-2.3
2023-12-03T04:15:00.388Z,-2.45
2023-12-03T04:30:00.457Z,-2.7
2023-12-03T04:45:00.548Z,-3.1
2023-12-03T05:00:00.455Z,-3.45
2023-12-03T05:15:00.412Z,-3.45
2023-12-03T05:30:00.436Z,-3.65
2023-12-03T05:45:00.457Z,-3.4
2023-12-03T06:00:00.463Z,-3.8
2023-12-03T06:15:00.393Z,-4.0
2023-12-03T06:30:00.431Z,-4.35
2023-12-03T06:45:00.506Z,-4.6
2023-12-03T07:00:00.456Z,-4.65
2023-12-03T07:15:00.400Z,-4.9
2023-12-03T07:30:00.409Z,-4.7
2023-12-03T07:45:00.406Z,-4.3
2023-12-03T08:00:00.472Z,-3.8
2023-12-03T08:15:00.447Z,-3.1
2023-12-03T08:30:00.391Z,-2.55
2023-12-03T08:45:00.396Z,-2.15
2023-12-03T09:00:00.403Z,-1.85
2023-12-03T09:15:00.458Z,-1.05
2023-12-03T09:30:00.463Z,-0.85
2023-12-03T09:45:00.611Z,0.0
2023-12-03T10:00:00.440Z,0.4
2023-12-03T10:15:00.378Z,0.5
2023-12-03T10:30:00.383Z,0.6
2023-12-03T10:45:00.414Z,0.9
2023-12-03T11:00:00.388Z,0.9
2023-12-03T11:15:00.353Z,0.85
2023-12-03T11:30:00.391Z,1.05
2023-12-03T11:45:00.379Z,0.85
2023-12-03T12:00:00.430Z,0.9
2023-12-03T12:15:00.391Z,1.0
2023-12-03T12:30:09.570Z,1.15
2023-12-03T12:45:00.409Z,0.95
2023-12-03T13:00:00.410Z,1.05
2023-12-03T13:15:00.430Z,1.25
2023-12-03T13:30:00.414Z,0.8
2023-12-03T13:45:00.374Z,1.25
2023-12-03T14:00:00.368Z,1.0
2023-12-03T14:15:00.374Z,0.55
2023-12-03T14:30:00.448Z,-0.35
2023-12-03T14:45:00.357Z,-0.8
2023-12-03T15:00:00.340Z,-0.95
2023-12-03T15:15:00.351Z,-1.5
2023-12-03T15:30:00.450Z,-1.65
2023-12-03T15:45:00.364Z,-2.15
2023-12-03T16:00:00.433Z,-2.55
2023-12-03T16:15:00.376Z,-2.8
2023-12-03T16:30:00.381Z,-3.1
2023-12-03T16:45:00.452Z,-3.4
2023-12-03T17:00:00.555Z,-3.8
2023-12-03T17:15:00.392Z,-3.9
2023-12-03T17:30:00.659Z,-4.1
2023-12-03T17:45:00.374Z,-4.45
2023-12-03T18:00:00.486Z,-4.4
2023-12-03T18:15:00.454Z,-5.0
2023-12-03T18:30:00.368Z,-4.9
2023-12-03T18:45:00.382Z,-5.05
2023-12-03T19:00:00.384Z,-5.25
2023-12-03T19:15:00.441Z,-5.35
2023-12-03T19:30:00.380Z,-5.7
2023-12-03T19:45:00.444Z,-5.65
2023-12-03T20:00:00.385Z,-5.95
2023-12-03T20:15:00.383Z,-6.0
2023-12-03T20:30:00.445Z,-6.25
2023-12-03T20:45:00.498Z,-6.2
2023-12-03T21:00:00.443Z,-6.6
2023-12-03T21:15:00.430Z,-6.6
2023-12-03T21:30:00.376Z,-6.5
2023-12-03T21:45:00.457Z,-6.45
2023-12-03T22:00:00.385Z,-6.85
2023-12-03T22:15:00.449Z,-7.0
2023-12-03T22:30:03.113Z,-7.15
2023-12-03T22:45:00.429Z,-7.05
2023-12-03T23:00:00.396Z,-7.3
2023-12-03T23:15:00.389Z,-7.25
2023-12-03T23:30:00.392Z,-7.35
2023-12-03T23:45:00.350Z,-7.7
